createdAt,value
2022-11-23T00:00:13.526Z,1.30
2022-11-23T00:05:43.918Z,1.25
2022-11-23T00:11:07.576Z,1.10
2022-11-23T00:16:34.796Z,1.15
2022-11-23T00:21:59.993Z,1.14
2022-11-23T00:27:28.700Z,1.03
2022-11-23T00:32:56.342Z,1.02
2022-11-23T00:38:26.808Z,1.04
2022-11-23T00:43:55.896Z,1.02
2022-11-23T00:49:24.504Z,1.02
2022-11-23T00:54:52.533Z,1.00
2022-11-23T01:00:19.868Z,0.88
2022-11-23T01:05:43.863Z,0.94
2022-11-23T01:11:14.275Z,1.01
2022-11-23T01:16:40.663Z,1.13
2022-11-23T01:22:11.110Z,1.13
2022-11-23T01:27:41.835Z,1.11
2022-11-23T01:33:06.241Z,1.04
2022-11-23T01:38:29.683Z,1.03
2022-11-23T01:43:56.947Z,1.05
2022-11-23T01:49:22.660Z,0.99
2022-11-23T01:54:49.594Z,1.00
2022-11-23T02:00:15.482Z,0.84
2022-11-23T02:05:44.667Z,0.93
2022-11-23T02:11:17.521Z,0.91
2022-11-23T02:16:42.055Z,1.07
2022-11-23T02:22:12.505Z,1.07
2022-11-23T02:27:38.379Z,1.04
2022-11-23T02:33:05.258Z,1.00
2022-11-23T02:38:35.229Z,1.10
2022-11-23T02:43:59.826Z,1.20
2022-11-23T02:49:22.755Z,1.09
2022-11-23T02:54:49.095Z,1.18
2022-11-23T03:00:18.874Z,1.12
2022-11-23T03:05:44.590Z,1.18
2022-11-23T03:11:09.578Z,1.16
2022-11-23T03:16:39.865Z,1.16
2022-11-23T03:22:06.165Z,1.25
2022-11-23T03:27:32.769Z,1.40
2022-11-23T03:33:02.924Z,1.45
2022-11-23T03:38:32.242Z,1.39
2022-11-23T03:44:01.212Z,1.33
2022-11-23T03:49:32.025Z,1.33
2022-11-23T03:55:01.358Z,1.20
2022-11-23T04:00:31.833Z,1.32
2022-11-23T04:06:00.387Z,1.19
2022-11-23T04:11:58.312Z,1.18
2022-11-23T04:17:27.305Z,1.14
2022-11-23T04:22:57.940Z,1.21
2022-11-23T04:28:22.658Z,1.22
2022-11-23T04:33:51.806Z,1.15
2022-11-23T04:39:23.649Z,1.27
2022-11-23T04:45:12.633Z,1.16
2022-11-23T04:50:35.796Z,1.19
2022-11-23T04:56:07.215Z,1.29
2022-11-23T05:01:34.722Z,1.36
2022-11-23T05:07:17.102Z,1.26
2022-11-23T05:12:48.621Z,1.25
2022-11-23T05:18:13.595Z,1.29
2022-11-23T05:23:38.561Z,1.35
2022-11-23T05:29:03.414Z,1.39
2022-11-23T05:34:27.739Z,1.47
2022-11-23T05:39:51.269Z,1.50
2022-11-23T05:45:16.567Z,1.50
2022-11-23T05:50:43.392Z,1.36
2022-11-23T05:56:22.678Z,1.49
2022-11-23T06:01:58.963Z,1.45
2022-11-23T06:07:27.511Z,1.36
2022-11-23T06:13:03.607Z,1.33
2022-11-23T06:18:28.770Z,1.32
2022-11-23T06:23:52.636Z,1.55
2022-11-23T06:29:17.832Z,1.57
2022-11-23T06:34:42.897Z,1.65
2022-11-23T06:40:13.560Z,1.72
2022-11-23T06:45:37.702Z,1.77
2022-11-23T06:51:06.984Z,1.53
2022-11-23T06:56:32.554Z,1.56
2022-11-23T07:01:55.849Z,1.62
2022-11-23T07:07:20.826Z,1.61
2022-11-23T07:12:57.198Z,1.52
2022-11-23T07:18:27.251Z,1.53
2022-11-23T07:23:57.682Z,1.56
2022-11-23T07:29:20.576Z,1.58
2022-11-23T07:34:44.340Z,1.57
2022-11-23T07:40:10.483Z,1.43
2022-11-23T07:45:39.102Z,1.32
2022-11-23T07:51:05.528Z,1.41
2022-11-23T07:56:36.376Z,1.68
2022-11-23T08:02:05.097Z,1.58
2022-11-23T08:07:34.819Z,1.49
2022-11-23T08:13:00.190Z,1.36
2022-11-23T08:18:26.008Z,1.67
2022-11-23T08:23:54.626Z,1.83
2022-11-23T08:29:20.273Z,1.80
2022-11-23T08:34:46.324Z,1.92
2022-11-23T08:40:11.601Z,1.98
2022-11-23T08:45:36.763Z,2.39
2022-11-23T08:51:01.014Z,2.42
2022-11-23T08:56:26.243Z,2.54
2022-11-23T09:01:57.403Z,2.09
2022-11-23T09:07:26.691Z,2.19
2022-11-23T09:12:53.661Z,2.55
2022-11-23T09:18:19.930Z,2.50
2022-11-23T09:23:48.615Z,2.20
2022-11-23T09:29:13.026Z,1.91
2022-11-23T09:34:43.046Z,2.21
2022-11-23T09:40:16.236Z,2.56
2022-11-23T09:45:49.941Z,2.54
2022-11-23T09:51:19.513Z,2.67
2022-11-23T09:56:51.263Z,2.76
2022-11-23T10:02:23.268Z,2.66
2022-11-23T10:08:03.523Z,2.27
2022-11-23T10:13:36.746Z,2.43
2022-11-23T10:19:16.726Z,2.24
2022-11-23T10:24:51.158Z,1.99
2022-11-23T10:30:20.574Z,2.04
2022-11-23T10:35:43.953Z,2.30
2022-11-23T10:41:15.104Z,2.43
2022-11-23T10:46:41.304Z,2.38
2022-11-23T10:52:29.263Z,2.30
2022-11-23T10:58:01.528Z,2.41
2022-11-23T11:03:26.633Z,2.27
2022-11-23T11:08:52.579Z,2.30
2022-11-23T11:14:23.379Z,1.95
2022-11-23T11:19:55.027Z,2.14
2022-11-23T11:25:30.684Z,2.45
2022-11-23T11:31:08.484Z,2.49
2022-11-23T11:36:45.312Z,2.83
2022-11-23T11:42:19.789Z,3.05
2022-11-23T11:47:54.441Z,3.09
2022-11-23T11:53:23.059Z,3.27
2022-11-23T11:58:55.386Z,3.29
2022-11-23T12:04:27.639Z,3.45
2022-11-23T12:09:56.921Z,3.60
2022-11-23T12:15:49.063Z,3.74
2022-11-23T12:21:37.440Z,3.71
